Terminal Aerodrome Forecast
Issued by NWS

Home | Current Version | Previous Version | Text Only | Print | Product List | Glossary On
Versions: 1 2 3 4 5 6 7 8 9 10 11 12 13
000
FTUS43 KFGF 252300
TAFTVF
TAF
KTVF 252339Z 2600/2624 19007KT P6SM BKN050
     FM260400 19013G17KT P6SM BKN020
     FM261100 29016G24KT P6SM BKN015
     FM261500 31015G25KT P6SM BKN025
      AMD LTD TO CLD VIS AND WIND=

USA.gov is the U.S. government's official web portal to all federal, state and local government web resources and services.